Time;durP1;ratioP1;P1;durP2;ratioP2;P2;SDS_P1;SDS_P2;PMS_P1;PMS_P2;Temp;Humidity;BMP_temperature;BMP_pressure;BME280_temperature;BME280_humidity;BME280_pressure;Samples;Min_cycle;Max_cycle;Signal;HPM_P1;HPM_P2
2024/02/28 00:01:29;;;;;;;;;;;;;;;;;;4935350;28;89460;-80
2024/02/28 00:03:54;;;;;;;;;;;;;;;;;;4932839;28;89192;-80
2024/02/28 00:06:19;;;;;;;;;;;;;;;;;;4947841;28;89516;-80
2024/02/28 00:08:46;;;;;;;;;;;;;;;;;;4932611;28;89802;-78
2024/02/28 00:11:14;;;;;;;;;;;;;;;;;;4931142;28;91307;-78
2024/02/28 00:13:39;;;;;;;;;;;;;;;;;;4937854;28;89192;-82
2024/02/28 00:16:04;;;;;;;;;;;;;;;;;;4951447;28;90224;-82
2024/02/28 00:18:32;;;;;;;;;;;;;;;;;;4950743;28;89188;-80
2024/02/28 00:20:58;;;;;;;;;;;;;;;;;;4950385;28;90535;-80
2024/02/28 00:23:24;;;;;;;;;;;;;;;;;;4953999;28;89493;-81
2024/02/28 00:25:49;;;;;;;;;;;;;;;;;;4949902;28;90708;-78
2024/02/28 00:28:14;;;;;;;;;;;;;;;;;;4951653;28;89743;-81
2024/02/28 00:30:41;;;;;;;;;;;;;;;;;;4951930;28;89921;-79
2024/02/28 00:33:06;;;;;;;;;;;;;;;;;;4951463;28;88974;-81
2024/02/28 00:35:33;;;;;;;;;;;;;;;;;;4951605;28;89795;-78
2024/02/28 00:37:58;;;;;;;;;;;;;;;;;;4949728;28;92638;-80
2024/02/28 00:40:25;;;;;;;;;;;;;;;;;;4951430;28;89149;-80
2024/02/28 00:42:50;;;;;;;;;;;;;;;;;;4954063;28;89511;-80
2024/02/28 00:45:16;;;;;;;;;;;;;;;;;;4949340;28;90277;-80
2024/02/28 00:47:41;;;;;;;;;;;;;;;;;;4950932;28;89819;-81
2024/02/28 00:50:07;;;;;;;;;;;;;;;;;;4950982;28;89346;-78
2024/02/28 00:52:32;;;;;;;;;;;;;;;;;;4948519;28;89829;-79
2024/02/28 00:54:58;;;;;;;;;;;;;;;;;;4932043;28;89671;-79
2024/02/28 00:57:23;;;;;;;;;;;;;;;;;;4930036;28;89330;-79
2024/02/28 00:59:49;;;;;;;;;;;;;;;;;;4930056;28;90883;-81
2024/02/28 01:02:14;;;;;;;;;;;;;;;;;;4931261;28;89507;-81
2024/02/28 01:04:39;;;;;;;;;;;;;;;;;;4953469;28;89306;-80
2024/02/28 01:07:05;;;;;;;;;;;;;;;;;;4949464;28;92680;-80
2024/02/28 01:09:30;;;;;;;;;;;;;;;;;;4949770;28;91830;-80
2024/02/28 01:11:55;;;;;;;;;;;;;;;;;;4951836;28;88924;-80
2024/02/28 01:14:20;;;;;;;;;;;;;;;;;;4951375;28;89430;-81
2024/02/28 01:16:45;;;;;;;;;;;;;;;;;;4950799;28;89119;-80
2024/02/28 01:19:11;;;;;;;;;;;;;;;;;;4950586;28;88911;-82
2024/02/28 01:21:36;;;;;;;;;;;;;;;;;;4950443;28;89558;-80
2024/02/28 01:24:01;;;;;;;;;;;;;;;;;;4950680;28;89585;-80
2024/02/28 01:26:26;;;;;;;;;;;;;;;;;;4936964;28;89661;-81
2024/02/28 01:28:51;;;;;;;;;;;;;;;;;;4931201;28;89252;-78
2024/02/28 01:31:17;;;;;;;;;;;;;;;;;;4931295;28;89123;-81
2024/02/28 01:33:42;;;;;;;;;;;;;;;;;;4931032;28;89579;-80
2024/02/28 01:36:07;;;;;;;;;;;;;;;;;;4929794;28;92153;-80
2024/02/28 01:38:32;;;;;;;;;;;;;;;;;;4931241;28;89036;-79
2024/02/28 01:40:58;;;;;;;;;;;;;;;;;;4937376;28;89576;-82
2024/02/28 01:43:23;;;;;;;;;;;;;;;;;;4933631;28;89810;-78
2024/02/28 01:45:49;;;;;;;;;;;;;;;;;;4931005;28;89299;-78
2024/02/28 01:48:15;;;;;;;;;;;;;;;;;;4942348;28;91273;-80
2024/02/28 01:50:41;;;;;;;;;;;;;;;;;;4947999;28;90357;-79
2024/02/28 01:53:07;;;;;;;;;;;;;;;;;;4950367;28;89619;-78
2024/02/28 01:55:32;;;;;;;;;;;;;;;;;;4949658;28;89217;-80
2024/02/28 01:57:57;;;;;;;;;;;;;;;;;;4954112;28;89323;-80
2024/02/28 02:00:24;;;;;;;;;;;;;;;;;;4956466;28;90282;-79
2024/02/28 02:02:49;;;;;;;;;;;;;;;;;;4955246;28;92247;-80
2024/02/28 02:05:16;;;;;;;;;;;;;;;;;;4956584;28;89480;-78
2024/02/28 02:07:41;;;;;;;;;;;;;;;;;;4955762;28;90985;-79
2024/02/28 02:10:09;;;;;;;;;;;;;;;;;;4959663;28;89360;-79
2024/02/28 02:12:34;;;;;;;;;;;;;;;;;;4956447;28;89268;-80
2024/02/28 02:14:59;;;;;;;;;;;;;;;;;;4957369;28;89743;-79
2024/02/28 02:17:24;;;;;;;;;;;;;;;;;;4956355;28;91400;-80
2024/02/28 02:19:49;;;;;;;;;;;;;;;;;;4956980;28;89715;-80
2024/02/28 02:22:15;;;;;;;;;;;;;;;;;;4957005;28;89398;-79
2024/02/28 02:24:41;;;;;;;;;;;;;;;;;;4956902;28;89139;-79
2024/02/28 02:27:06;;;;;;;;;;;;;;;;;;4956648;28;90024;-80
2024/02/28 02:29:32;;;;;;;;;;;;;;;;;;4956724;28;89317;-79
2024/02/28 02:31:57;;;;;;;;;;;;;;;;;;4959707;28;89634;-81
2024/02/28 02:34:22;;;;;;;;;;;;;;;;;;4956619;28;89257;-79
2024/02/28 02:36:47;;;;;;;;;;;;;;;;;;4955190;28;92741;-82
2024/02/28 02:39:13;;;;;;;;;;;;;;;;;;4955902;28;88980;-80
2024/02/28 02:41:38;;;;;;;;;;;;;;;;;;4956012;28;89318;-81
2024/02/28 02:44:03;;;;;;;;;;;;;;;;;;4956375;28;89056;-82
2024/02/28 02:46:28;;;;;;;;;;;;;;;;;;4956444;28;89639;-82
2024/02/28 02:48:53;;;;;;;;;;;;;;;;;;4956121;28;90442;-82
2024/02/28 02:51:19;;;;;;;;;;;;;;;;;;4959177;28;89063;-82
2024/02/28 02:53:45;;;;;;;;;;;;;;;;;;4956276;28;89146;-80
2024/02/28 02:56:10;;;;;;;;;;;;;;;;;;4956133;28;89255;-81
2024/02/28 02:58:35;;;;;;;;;;;;;;;;;;4954806;28;92667;-80
2024/02/28 03:01:00;;;;;;;;;;;;;;;;;;4956074;28;89379;-77
2024/02/28 03:03:26;;;;;;;;;;;;;;;;;;4955800;28;88916;-82
2024/02/28 03:05:51;;;;;;;;;;;;;;;;;;4955984;28;89532;-79
2024/02/28 03:08:16;;;;;;;;;;;;;;;;;;4955025;28;89885;-80
2024/02/28 03:10:41;;;;;;;;;;;;;;;;;;4952268;28;89515;-81
2024/02/28 03:13:07;;;;;;;;;;;;;;;;;;4955462;28;90116;-84
2024/02/28 03:15:32;;;;;;;;;;;;;;;;;;4951277;28;90314;-81
2024/02/28 03:17:58;;;;;;;;;;;;;;;;;;4953398;28;89479;-80
2024/02/28 03:20:23;;;;;;;;;;;;;;;;;;4953591;28;89712;-78
2024/02/28 03:22:49;;;;;;;;;;;;;;;;;;4951527;28;90533;-79
2024/02/28 03:25:14;;;;;;;;;;;;;;;;;;4952536;28;89579;-79
2024/02/28 03:27:39;;;;;;;;;;;;;;;;;;4951136;28;91734;-80
2024/02/28 03:30:05;;;;;;;;;;;;;;;;;;4951201;28;89384;-82
2024/02/28 03:32:30;;;;;;;;;;;;;;;;;;4937991;28;92895;-79
2024/02/28 03:34:56;;;;;;;;;;;;;;;;;;4935524;28;89149;-79
2024/02/28 03:37:21;;;;;;;;;;;;;;;;;;4931495;28;92128;-78
2024/02/28 03:39:46;;;;;;;;;;;;;;;;;;4932856;28;89419;-80
2024/02/28 03:42:11;;;;;;;;;;;;;;;;;;4932720;28;89110;-81
2024/02/28 03:44:37;;;;;;;;;;;;;;;;;;4933222;28;90022;-82
2024/02/28 03:47:02;;;;;;;;;;;;;;;;;;4932696;28;89357;-81
2024/02/28 03:49:27;;;;;;;;;;;;;;;;;;4936546;28;90903;-80
2024/02/28 03:51:52;;;;;;;;;;;;;;;;;;4950233;28;93253;-79
2024/02/28 03:54:18;;;;;;;;;;;;;;;;;;4950484;28;92235;-80
2024/02/28 03:56:43;;;;;;;;;;;;;;;;;;4954875;28;89035;-82
2024/02/28 03:59:08;;;;;;;;;;;;;;;;;;4952015;28;89659;-79
2024/02/28 04:01:34;;;;;;;;;;;;;;;;;;4952184;28;89527;-79
2024/02/28 04:03:59;;;;;;;;;;;;;;;;;;4951173;28;89776;-79
2024/02/28 04:06:24;;;;;;;;;;;;;;;;;;4950576;28;91986;-82
2024/02/28 04:08:50;;;;;;;;;;;;;;;;;;4951240;28;89359;-80
2024/02/28 04:11:15;;;;;;;;;;;;;;;;;;4951204;28;89807;-80
2024/02/28 04:13:40;;;;;;;;;;;;;;;;;;4966561;28;92520;-80
2024/02/28 04:16:06;;;;;;;;;;;;;;;;;;4951562;28;89592;-79
2024/02/28 04:18:31;;;;;;;;;;;;;;;;;;4950594;28;89757;-82
2024/02/28 04:20:57;;;;;;;;;;;;;;;;;;4946329;28;90548;-82
2024/02/28 04:23:22;;;;;;;;;;;;;;;;;;4946310;28;90498;-80
2024/02/28 04:25:47;;;;;;;;;;;;;;;;;;4940732;28;90624;-80
2024/02/28 04:28:13;;;;;;;;;;;;;;;;;;4939724;28;90070;-80
2024/02/28 04:30:38;;;;;;;;;;;;;;;;;;4941598;28;94800;-80
2024/02/28 04:33:04;;;;;;;;;;;;;;;;;;4952213;28;92136;-79
2024/02/28 04:35:29;;;;;;;;;;;;;;;;;;4945241;28;88979;-82
2024/02/28 04:37:54;;;;;;;;;;;;;;;;;;4940731;28;91339;-78
2024/02/28 04:40:20;;;;;;;;;;;;;;;;;;4943279;28;89584;-79
2024/02/28 04:42:45;;;;;;;;;;;;;;;;;;4939795;28;90143;-83
2024/02/28 04:45:10;;;;;;;;;;;;;;;;;;4941089;28;89579;-80
2024/02/28 04:47:36;;;;;;;;;;;;;;;;;;4941865;28;89330;-79
2024/02/28 04:50:01;;;;;;;;;;;;;;;;;;4942460;28;89662;-80
2024/02/28 04:52:27;;;;;;;;;;;;;;;;;;4932796;28;89705;-80
2024/02/28 04:54:53;;;;;;;;;;;;;;;;;;4948629;28;89415;-81
2024/02/28 04:57:18;;;;;;;;;;;;;;;;;;4946601;28;92034;-80
2024/02/28 04:59:44;;;;;;;;;;;;;;;;;;4936354;28;89447;-79
2024/02/28 05:02:09;;;;;;;;;;;;;;;;;;4940643;28;89811;-78
2024/02/28 05:04:35;;;;;;;;;;;;;;;;;;4941509;28;89288;-80
2024/02/28 05:07:00;;;;;;;;;;;;;;;;;;4942406;28;90940;-80
2024/02/28 05:09:25;;;;;;;;;;;;;;;;;;4942421;28;90072;-78
2024/02/28 05:11:51;;;;;;;;;;;;;;;;;;4943987;28;90519;-81
2024/02/28 05:14:16;;;;;;;;;;;;;;;;;;4939782;28;89054;-81
2024/02/28 05:16:41;;;;;;;;;;;;;;;;;;4940023;28;89550;-78
2024/02/28 05:19:06;;;;;;;;;;;;;;;;;;4954890;28;92062;-80
2024/02/28 05:21:39;;;;;;;;;;;;;;;;;;4940460;28;89999;-79
2024/02/28 05:24:04;;;;;;;;;;;;;;;;;;4935012;28;89791;-78
2024/02/28 05:26:34;;;;;;;;;;;;;;;;;;4939083;28;89962;-80
2024/02/28 05:29:00;;;;;;;;;;;;;;;;;;4939102;28;89734;-81
2024/02/28 05:31:26;;;;;;;;;;;;;;;;;;4937285;28;90826;-80
2024/02/28 05:34:02;;;;;;;;;;;;;;;;;;4938906;28;89156;-82
2024/02/28 05:36:28;;;;;;;;;;;;;;;;;;4951353;28;91474;-78
2024/02/28 05:38:54;;;;;;;;;;;;;;;;;;4935923;28;91278;-80
2024/02/28 05:41:20;;;;;;;;;;;;;;;;;;4940352;28;89156;-78
2024/02/28 05:43:46;;;;;;;;;;;;;;;;;;4944084;28;90863;-80
2024/02/28 05:46:12;;;;;;;;;;;;;;;;;;4935183;28;89488;-81
2024/02/28 05:48:37;;;;;;;;;;;;;;;;;;4938757;28;90527;-83
2024/02/28 05:51:03;;;;;;;;;;;;;;;;;;4939184;28;89277;-80
2024/02/28 05:53:32;;;;;;;;;;;;;;;;;;4938168;28;91216;-79
2024/02/28 05:55:57;;;;;;;;;;;;;;;;;;4933850;28;89791;-80
2024/02/28 05:58:23;;;;;;;;;;;;;;;;;;4939407;28;89613;-79
2024/02/28 06:00:48;;;;;;;;;;;;;;;;;;4939019;28;89620;-80
2024/02/28 06:03:13;;;;;;;;;;;;;;;;;;4934146;28;89701;-82
2024/02/28 06:05:38;;;;;;;;;;;;;;;;;;4939095;28;90843;-80
2024/02/28 06:08:04;;;;;;;;;;;;;;;;;;4937673;28;91063;-79
2024/02/28 06:10:29;;;;;;;;;;;;;;;;;;4955149;28;92191;-77
2024/02/28 06:12:54;;;;;;;;;;;;;;;;;;4938319;28;90352;-80
2024/02/28 06:15:19;;;;;;;;;;;;;;;;;;4936520;28;89854;-80
2024/02/28 06:17:45;;;;;;;;;;;;;;;;;;4938774;28;89711;-81
2024/02/28 06:20:10;;;;;;;;;;;;;;;;;;4940545;28;89142;-80
2024/02/28 06:22:35;;;;;;;;;;;;;;;;;;4938521;28;89875;-77
2024/02/28 06:25:00;;;;;;;;;;;;;;;;;;4938386;28;89738;-80
2024/02/28 06:27:26;;;;;;;;;;;;;;;;;;4941254;28;89167;-79
2024/02/28 06:29:52;;;;;;;;;;;;;;;;;;4934679;28;91677;-80
2024/02/28 06:32:17;;;;;;;;;;;;;;;;;;4938512;28;89097;-83
2024/02/28 06:34:42;;;;;;;;;;;;;;;;;;4940961;28;90165;-79
2024/02/28 06:37:07;;;;;;;;;;;;;;;;;;4936602;28;89362;-79
2024/02/28 06:39:33;;;;;;;;;;;;;;;;;;4934284;28;89019;-81
2024/02/28 06:41:58;;;;;;;;;;;;;;;;;;4936965;28;89610;-79
2024/02/28 06:44:23;;;;;;;;;;;;;;;;;;4942735;28;89742;-82
2024/02/28 06:46:50;;;;;;;;;;;;;;;;;;4940817;28;89948;-80
2024/02/28 06:49:16;;;;;;;;;;;;;;;;;;4941401;28;89577;-79
2024/02/28 06:51:43;;;;;;;;;;;;;;;;;;4939715;28;89515;-82
2024/02/28 06:54:08;;;;;;;;;;;;;;;;;;4945856;28;89744;-81
2024/02/28 06:56:33;;;;;;;;;;;;;;;;;;4939973;28;89636;-82
2024/02/28 06:58:58;;;;;;;;;;;;;;;;;;4939606;28;89245;-80
2024/02/28 07:01:23;;;;;;;;;;;;;;;;;;4940060;28;89658;-83
2024/02/28 07:03:49;;;;;;;;;;;;;;;;;;4937414;28;90314;-84
2024/02/28 07:06:14;;;;;;;;;;;;;;;;;;4937838;28;91734;-78
2024/02/28 07:08:41;;;;;;;;;;;;;;;;;;4940949;28;89730;-79
2024/02/28 07:11:13;;;;;;;;;;;;;;;;;;4941758;28;89861;-81
2024/02/28 07:13:38;;;;;;;;;;;;;;;;;;4937597;28;88999;-83
2024/02/28 07:16:03;;;;;;;;;;;;;;;;;;4946709;28;89752;-77
2024/02/28 07:18:29;;;;;;;;;;;;;;;;;;4938585;28;90614;-78
2024/02/28 07:20:55;;;;;;;;;;;;;;;;;;4941741;28;90681;-80
2024/02/28 07:23:20;;;;;;;;;;;;;;;;;;4945494;28;89476;-79
2024/02/28 07:25:46;;;;;;;;;;;;;;;;;;4947599;28;89067;-77
2024/02/28 07:28:11;;;;;;;;;;;;;;;;;;4946923;28;89571;-89
2024/02/28 07:30:45;;;;;;;;;;;;;;;;;;4946610;28;89041;-87
2024/02/28 07:33:10;;;;;;;;;;;;;;;;;;4950196;28;89980;-91
2024/02/28 07:35:48;;;;;;;;;;;;;;;;;;4942388;28;89713;-90
2024/02/28 07:38:13;;;;;;;;;;;;;;;;;;4943718;28;89434;-90
2024/02/28 07:40:39;;;;;;;;;;;;;;;;;;4944735;28;89202;-90
2024/02/28 07:43:04;;;;;;;;;;;;;;;;;;4941381;28;89222;-88
2024/02/28 07:45:29;;;;;;;;;;;;;;;;;;4941967;28;89393;-86
2024/02/28 07:47:57;;;;;;;;;;;;;;;;;;4943227;28;89473;-88
2024/02/28 07:50:23;;;;;;;;;;;;;;;;;;4953538;28;93416;-89
2024/02/28 07:52:48;;;;;;;;;;;;;;;;;;4951061;28;90252;-91
2024/02/28 07:55:13;;;;;;;;;;;;;;;;;;4943333;28;89667;-80
2024/02/28 07:57:38;;;;;;;;;;;;;;;;;;4946933;28;90188;-79
2024/02/28 08:00:04;;;;;;;;;;;;;;;;;;4949114;28;93142;-82
2024/02/28 08:02:29;;;;;;;;;;;;;;;;;;4950195;28;89568;-85
2024/02/28 08:04:54;;;;;;;;;;;;;;;;;;4951919;28;89639;-82
2024/02/28 08:07:20;;;;;;;;;;;;;;;;;;4949760;28;91422;-83
2024/02/28 08:09:45;;;;;;;;;;;;;;;;;;4949454;28;92025;-83
2024/02/28 08:12:10;;;;;;;;;;;;;;;;;;4951725;28;89069;-85
2024/02/28 08:14:35;;;;;;;;;;;;;;;;;;4969438;28;92965;-83
2024/02/28 08:17:01;;;;;;;;;;;;;;;;;;4947189;28;90169;-84
2024/02/28 08:19:26;;;;;;;;;;;;;;;;;;4950967;28;89778;-85
2024/02/28 08:21:51;;;;;;;;;;;;;;;;;;4949683;28;89468;-85
2024/02/28 08:24:16;;;;;;;;;;;;;;;;;;4951172;28;92070;-80
2024/02/28 08:26:42;;;;;;;;;;;;;;;;;;4951066;28;89745;-85
2024/02/28 08:29:07;;;;;;;;;;;;;;;;;;4950366;28;92080;-78
2024/02/28 08:31:32;;;;;;;;;;;;;;;;;;4950241;28;89579;-78
2024/02/28 08:33:57;;;;;;;;;;;;;;;;;;4945095;28;92284;-78
2024/02/28 08:36:23;;;;;;;;;;;;;;;;;;4945669;28;92265;-77
2024/02/28 08:38:48;;;;;;;;;;;;;;;;;;4942377;28;92381;-78
2024/02/28 08:41:13;;;;;;;;;;;;;;;;;;4941413;28;91862;-77
2024/02/28 08:43:39;;;;;;;;;;;;;;;;;;4943237;28;89479;-77
2024/02/28 08:46:05;;;;;;;;;;;;;;;;;;4946409;28;91102;-78
2024/02/28 08:48:30;;;;;;;;;;;;;;;;;;4943338;28;90968;-78
2024/02/28 08:50:56;;;;;;;;;;;;;;;;;;4941543;28;89156;-77
2024/02/28 08:53:21;;;;;;;;;;;;;;;;;;4941089;28;92533;-78
2024/02/28 08:55:46;;;;;;;;;;;;;;;;;;4946243;28;91700;-80
2024/02/28 08:58:11;;;;;;;;;;;;;;;;;;4940926;28;90009;-77
2024/02/28 09:00:37;;;;;;;;;;;;;;;;;;4939836;28;91866;-78
2024/02/28 09:03:04;;;;;;;;;;;;;;;;;;4948815;28;89187;-79
2024/02/28 09:05:29;;;;;;;;;;;;;;;;;;4946583;28;92818;-80
2024/02/28 09:07:54;;;;;;;;;;;;;;;;;;4947008;28;89830;-77
2024/02/28 09:10:23;;;;;;;;;;;;;;;;;;4946147;28;90823;-79
2024/02/28 09:12:49;;;;;;;;;;;;;;;;;;4956072;28;92832;-80
2024/02/28 09:15:14;;;;;;;;;;;;;;;;;;4938428;28;89288;-77
2024/02/28 09:17:40;;;;;;;;;;;;;;;;;;4945346;28;89606;-81
2024/02/28 09:20:06;;;;;;;;;;;;;;;;;;4945787;28;89397;-78
2024/02/28 09:22:31;;;;;;;;;;;;;;;;;;4945357;28;89562;-76
2024/02/28 09:24:57;;;;;;;;;;;;;;;;;;4944121;28;91326;-79
2024/02/28 09:27:22;;;;;;;;;;;;;;;;;;4938682;28;92165;-78
2024/02/28 09:29:47;;;;;;;;;;;;;;;;;;4943442;28;90751;-78
2024/02/28 09:32:14;;;;;;;;;;;;;;;;;;4946301;28;92530;-80
2024/02/28 09:34:39;;;;;;;;;;;;;;;;;;4949294;28;89568;-77
2024/02/28 09:37:05;;;;;;;;;;;;;;;;;;4948364;28;89035;-76
2024/02/28 09:39:30;;;;;;;;;;;;;;;;;;4949315;28;91269;-78
2024/02/28 09:41:55;;;;;;;;;;;;;;;;;;4949016;28;89408;-79
2024/02/28 09:44:22;;;;;;;;;;;;;;;;;;4949987;28;92299;-79
2024/02/28 09:46:50;;;;;;;;;;;;;;;;;;4950947;28;92124;-77
2024/02/28 09:49:16;;;;;;;;;;;;;;;;;;4950922;28;89306;-77
2024/02/28 09:51:41;;;;;;;;;;;;;;;;;;4949915;28;89375;-77
2024/02/28 09:54:06;;;;;;;;;;;;;;;;;;4949790;28;89481;-79
2024/02/28 09:56:32;;;;;;;;;;;;;;;;;;4949612;28;89524;-77
2024/02/28 09:58:58;;;;;;;;;;;;;;;;;;4949901;28;89467;-76
2024/02/28 10:01:25;;;;;;;;;;;;;;;;;;4952529;28;90801;-79
2024/02/28 10:03:51;;;;;;;;;;;;;;;;;;4948626;28;92122;-78
2024/02/28 10:06:16;;;;;;;;;;;;;;;;;;4949757;28;89692;-77
2024/02/28 10:08:42;;;;;;;;;;;;;;;;;;4949899;28;89028;-78
2024/02/28 10:11:07;;;;;;;;;;;;;;;;;;4949708;28;89585;-78
2024/02/28 10:13:33;;;;;;;;;;;;;;;;;;4948191;28;91446;-80
2024/02/28 10:15:58;;;;;;;;;;;;;;;;;;4948080;28;90262;-79
2024/02/28 10:18:25;;;;;;;;;;;;;;;;;;4948454;28;92605;-79
2024/02/28 10:20:50;;;;;;;;;;;;;;;;;;4950771;28;90783;-79
2024/02/28 10:23:16;;;;;;;;;;;;;;;;;;4956251;28;89052;-77
2024/02/28 10:25:42;;;;;;;;;;;;;;;;;;4953137;28;89208;-79
2024/02/28 10:28:07;;;;;;;;;;;;;;;;;;4952931;28;89247;-78
2024/02/28 10:30:32;;;;;;;;;;;;;;;;;;4951634;28;90245;-77
2024/02/28 10:32:57;;;;;;;;;;;;;;;;;;4953089;28;89791;-80
2024/02/28 10:35:26;;;;;;;;;;;;;;;;;;4951084;28;90719;-77
2024/02/28 10:37:53;;;;;;;;;;;;;;;;;;4953140;28;89447;-76
2024/02/28 10:40:19;;;;;;;;;;;;;;;;;;4951593;28;90936;-78
2024/02/28 10:42:44;;;;;;;;;;;;;;;;;;4951862;28;89075;-79
2024/02/28 10:45:12;;;;;;;;;;;;;;;;;;4954087;28;92521;-76
2024/02/28 10:47:41;;;;;;;;;;;;;;;;;;4953170;28;89007;-79
2024/02/28 10:50:07;;;;;;;;;;;;;;;;;;4953194;28;89766;-79
2024/02/28 10:52:39;;;;;;;;;;;;;;;;;;4952238;28;91974;-79
2024/02/28 10:55:07;;;;;;;;;;;;;;;;;;4952883;28;89372;-78
2024/02/28 10:57:33;;;;;;;;;;;;;;;;;;4952248;28;90107;-78
2024/02/28 10:59:59;;;;;;;;;;;;;;;;;;4952129;28;89170;-78
2024/02/28 11:02:25;;;;;;;;;;;;;;;;;;4952837;28;89767;-77
2024/02/28 11:04:52;;;;;;;;;;;;;;;;;;4953666;28;92828;-78
2024/02/28 11:07:21;;;;;;;;;;;;;;;;;;4951520;28;90725;-78
2024/02/28 11:09:46;;;;;;;;;;;;;;;;;;4950688;28;90675;-76
2024/02/28 11:12:30;;;;;;;;;;;;;;;;;;4950735;28;92052;-78
2024/02/28 11:14:59;;;;;;;;;;;;;;;;;;4951297;28;90806;-78
2024/02/28 11:17:28;;;;;;;;;;;;;;;;;;4951015;28;92691;-79
2024/02/28 11:19:54;;;;;;;;;;;;;;;;;;4952337;28;89532;-80
2024/02/28 11:22:20;;;;;;;;;;;;;;;;;;4952304;28;89592;-77
2024/02/28 11:24:46;;;;;;;;;;;;;;;;;;4951786;28;89513;-77
2024/02/28 11:27:14;;;;;;;;;;;;;;;;;;4955057;28;89277;-77
2024/02/28 11:29:40;;;;;;;;;;;;;;;;;;4949741;28;91153;-78
2024/02/28 11:32:05;;;;;;;;;;;;;;;;;;4951976;28;89669;-80
2024/02/28 11:34:31;;;;;;;;;;;;;;;;;;4951807;28;90082;-76
2024/02/28 11:36:58;;;;;;;;;;;;;;;;;;4951997;28;89574;-81
2024/02/28 11:39:26;;;;;;;;;;;;;;;;;;4949962;28;91917;-79
2024/02/28 11:41:52;;;;;;;;;;;;;;;;;;4949936;28;89445;-78
2024/02/28 11:44:18;;;;;;;;;;;;;;;;;;4948823;28;89111;-77
2024/02/28 11:46:47;;;;;;;;;;;;;;;;;;4951710;28;89114;-78
2024/02/28 11:49:12;;;;;;;;;;;;;;;;;;4952534;28;90205;-78
2024/02/28 11:51:39;;;;;;;;;;;;;;;;;;4950951;28;89616;-78
2024/02/28 11:54:05;;;;;;;;;;;;;;;;;;4951518;28;89223;-78
2024/02/28 11:56:31;;;;;;;;;;;;;;;;;;4950509;28;92754;-79
2024/02/28 11:58:58;;;;;;;;;;;;;;;;;;4951427;28;90113;-78
2024/02/28 12:01:33;;;;;;;;;;;;;;;;;;4950197;28;91149;-77
2024/02/28 12:03:59;;;;;;;;;;;;;;;;;;4951823;28;89757;-79
2024/02/28 12:06:24;;;;;;;;;;;;;;;;;;4951583;28;89284;-77
2024/02/28 12:08:50;;;;;;;;;;;;;;;;;;4951734;28;89041;-78
2024/02/28 12:11:15;;;;;;;;;;;;;;;;;;4954544;28;89697;-77
2024/02/28 12:13:40;;;;;;;;;;;;;;;;;;4950308;28;90661;-79
2024/02/28 12:16:07;;;;;;;;;;;;;;;;;;4950195;28;92160;-76
2024/02/28 12:18:32;;;;;;;;;;;;;;;;;;4950670;28;89309;-77
2024/02/28 12:20:57;;;;;;;;;;;;;;;;;;4951000;28;89189;-78
2024/02/28 12:23:23;;;;;;;;;;;;;;;;;;4948845;28;93016;-78
2024/02/28 12:25:48;;;;;;;;;;;;;;;;;;4951073;28;89199;-80
2024/02/28 12:28:13;;;;;;;;;;;;;;;;;;4949729;28;90297;-81
2024/02/28 12:30:44;;;;;;;;;;;;;;;;;;4949744;28;92093;-79
2024/02/28 12:33:11;;;;;;;;;;;;;;;;;;4954208;28;89638;-78
2024/02/28 12:35:36;;;;;;;;;;;;;;;;;;4950926;28;89790;-77
2024/02/28 12:38:02;;;;;;;;;;;;;;;;;;4950879;28;89629;-78
2024/02/28 12:40:27;;;;;;;;;;;;;;;;;;4946315;28;89979;-78
2024/02/28 12:42:52;;;;;;;;;;;;;;;;;;4930064;28;90919;-78
2024/02/28 12:45:18;;;;;;;;;;;;;;;;;;4931661;28;89032;-78
2024/02/28 12:47:43;;;;;;;;;;;;;;;;;;4931087;28;89034;-78
2024/02/28 12:50:09;;;;;;;;;;;;;;;;;;4929641;28;92534;-77
2024/02/28 12:52:34;;;;;;;;;;;;;;;;;;4931509;28;89271;-78
2024/02/28 12:55:00;;;;;;;;;;;;;;;;;;4933236;28;90316;-78
2024/02/28 12:57:25;;;;;;;;;;;;;;;;;;4930729;28;92011;-78
2024/02/28 12:59:51;;;;;;;;;;;;;;;;;;4932343;28;89033;-79
2024/02/28 13:02:19;;;;;;;;;;;;;;;;;;4930599;28;92377;-77
2024/02/28 13:04:44;;;;;;;;;;;;;;;;;;4930508;28;91881;-78
2024/02/28 13:07:09;;;;;;;;;;;;;;;;;;4931164;28;89404;-77
2024/02/28 13:09:35;;;;;;;;;;;;;;;;;;4931103;28;89552;-77
2024/02/28 13:12:01;;;;;;;;;;;;;;;;;;4928904;28;92635;-79
2024/02/28 13:14:26;;;;;;;;;;;;;;;;;;4934138;28;89117;-78
2024/02/28 13:16:53;;;;;;;;;;;;;;;;;;4931270;28;89398;-78
2024/02/28 13:19:19;;;;;;;;;;;;;;;;;;4929798;28;90485;-77
2024/02/28 13:21:44;;;;;;;;;;;;;;;;;;4929409;28;92827;-77
2024/02/28 13:24:10;;;;;;;;;;;;;;;;;;4929314;28;91924;-77
2024/02/28 13:26:35;;;;;;;;;;;;;;;;;;4929878;28;90951;-76
2024/02/28 13:29:00;;;;;;;;;;;;;;;;;;4930390;28;89705;-78
2024/02/28 13:31:25;;;;;;;;;;;;;;;;;;4930197;28;89794;-78
2024/02/28 13:33:51;;;;;;;;;;;;;;;;;;4930780;28;89197;-78
2024/02/28 13:36:16;;;;;;;;;;;;;;;;;;4933413;28;89561;-76
2024/02/28 13:38:41;;;;;;;;;;;;;;;;;;4945357;28;89047;-78
2024/02/28 13:41:06;;;;;;;;;;;;;;;;;;4948599;28;93050;-78
2024/02/28 13:43:32;;;;;;;;;;;;;;;;;;4949068;28;92033;-78
2024/02/28 13:46:00;;;;;;;;;;;;;;;;;;4950313;28;89043;-79
2024/02/28 13:48:26;;;;;;;;;;;;;;;;;;4931979;28;92739;-78
2024/02/28 13:50:52;;;;;;;;;;;;;;;;;;4929261;28;92563;-79
2024/02/28 13:53:17;;;;;;;;;;;;;;;;;;4938850;28;89055;-79
2024/02/28 13:55:43;;;;;;;;;;;;;;;;;;4948616;28;92424;-77
2024/02/28 13:58:11;;;;;;;;;;;;;;;;;;4950749;28;91013;-78
2024/02/28 14:00:36;;;;;;;;;;;;;;;;;;4948317;28;92413;-78
2024/02/28 14:03:01;;;;;;;;;;;;;;;;;;4950282;28;89022;-77
2024/02/28 14:05:27;;;;;;;;;;;;;;;;;;4951014;28;89964;-78
2024/02/28 14:07:52;;;;;;;;;;;;;;;;;;4949264;28;89751;-78
2024/02/28 14:10:18;;;;;;;;;;;;;;;;;;4947633;28;92372;-78
2024/02/28 14:12:43;;;;;;;;;;;;;;;;;;4948869;28;89939;-78
2024/02/28 14:15:10;;;;;;;;;;;;;;;;;;4949036;28;89608;-80
2024/02/28 14:17:36;;;;;;;;;;;;;;;;;;4949888;28;89360;-77
2024/02/28 14:20:01;;;;;;;;;;;;;;;;;;4952648;28;89033;-77
2024/02/28 14:22:27;;;;;;;;;;;;;;;;;;4948337;28;90968;-77
2024/02/28 14:24:52;;;;;;;;;;;;;;;;;;4949503;28;89385;-78
2024/02/28 14:27:19;;;;;;;;;;;;;;;;;;4949948;28;90176;-78
2024/02/28 14:29:44;;;;;;;;;;;;;;;;;;4949450;28;89417;-77
2024/02/28 14:32:09;;;;;;;;;;;;;;;;;;4949851;28;89110;-77
2024/02/28 14:34:35;;;;;;;;;;;;;;;;;;4947843;28;92768;-77
2024/02/28 14:37:00;;;;;;;;;;;;;;;;;;4949305;28;89623;-79
2024/02/28 14:39:26;;;;;;;;;;;;;;;;;;4948070;28;90608;-78
2024/02/28 14:41:51;;;;;;;;;;;;;;;;;;4951546;28;89803;-78
2024/02/28 14:44:16;;;;;;;;;;;;;;;;;;4948426;28;89440;-77
2024/02/28 14:46:42;;;;;;;;;;;;;;;;;;4946841;28;92356;-77
2024/02/28 14:49:07;;;;;;;;;;;;;;;;;;4947909;28;89391;-78
2024/02/28 14:51:33;;;;;;;;;;;;;;;;;;4949139;28;89996;-78
2024/02/28 14:53:58;;;;;;;;;;;;;;;;;;4958883;28;92243;-76
2024/02/28 14:56:24;;;;;;;;;;;;;;;;;;4949294;28;89219;-77
2024/02/28 14:58:49;;;;;;;;;;;;;;;;;;4949212;28;89518;-77
2024/02/28 15:01:14;;;;;;;;;;;;;;;;;;4942888;28;89618;-78
2024/02/28 15:03:39;;;;;;;;;;;;;;;;;;4932799;28;89685;-78
2024/02/28 15:06:05;;;;;;;;;;;;;;;;;;4932278;28;89535;-79
2024/02/28 15:08:30;;;;;;;;;;;;;;;;;;4933433;28;89174;-77
2024/02/28 15:10:56;;;;;;;;;;;;;;;;;;4933888;28;89218;-78
2024/02/28 15:13:23;;;;;;;;;;;;;;;;;;4932435;28;89461;-76
2024/02/28 15:15:48;;;;;;;;;;;;;;;;;;4932305;28;89253;-77
2024/02/28 15:18:14;;;;;;;;;;;;;;;;;;4932968;28;89581;-79
2024/02/28 15:20:39;;;;;;;;;;;;;;;;;;4932801;28;89456;-78
2024/02/28 15:23:04;;;;;;;;;;;;;;;;;;4934444;28;91792;-77
2024/02/28 15:25:29;;;;;;;;;;;;;;;;;;4933033;28;89108;-77
2024/02/28 15:27:55;;;;;;;;;;;;;;;;;;4931903;28;89746;-78
2024/02/28 15:30:20;;;;;;;;;;;;;;;;;;4931263;28;89768;-78
2024/02/28 15:32:45;;;;;;;;;;;;;;;;;;4932613;28;89543;-77
2024/02/28 15:35:11;;;;;;;;;;;;;;;;;;4932578;28;89246;-78
2024/02/28 15:37:36;;;;;;;;;;;;;;;;;;4931700;28;89488;-78
2024/02/28 15:40:06;;;;;;;;;;;;;;;;;;4932071;28;90147;-77
2024/02/28 15:42:32;;;;;;;;;;;;;;;;;;4932177;28;89412;-77
2024/02/28 15:44:57;;;;;;;;;;;;;;;;;;4935376;28;89763;-78
2024/02/28 15:47:23;;;;;;;;;;;;;;;;;;4931609;28;89308;-77
2024/02/28 15:49:48;;;;;;;;;;;;;;;;;;4930563;28;90239;-78
2024/02/28 15:52:13;;;;;;;;;;;;;;;;;;4943982;28;89574;-80
2024/02/28 15:54:38;;;;;;;;;;;;;;;;;;4950629;28;92569;-77
2024/02/28 15:57:04;;;;;;;;;;;;;;;;;;4951702;28;89040;-77
2024/02/28 15:59:30;;;;;;;;;;;;;;;;;;4951607;28;90201;-77
2024/02/28 16:01:57;;;;;;;;;;;;;;;;;;4949801;28;91993;-78
2024/02/28 16:04:22;;;;;;;;;;;;;;;;;;4951147;28;89189;-77
2024/02/28 16:06:47;;;;;;;;;;;;;;;;;;4953911;28;89477;-78
2024/02/28 16:09:13;;;;;;;;;;;;;;;;;;4949858;28;91220;-77
2024/02/28 16:11:41;;;;;;;;;;;;;;;;;;4950491;28;92373;-77
2024/02/28 16:14:07;;;;;;;;;;;;;;;;;;4950875;28;90091;-76
2024/02/28 16:16:32;;;;;;;;;;;;;;;;;;4950962;28;89482;-79
2024/02/28 16:18:57;;;;;;;;;;;;;;;;;;4951779;28;89060;-78
2024/02/28 16:21:23;;;;;;;;;;;;;;;;;;4951359;28;89417;-76
2024/02/28 16:23:48;;;;;;;;;;;;;;;;;;4951242;28;89237;-78
2024/02/28 16:26:13;;;;;;;;;;;;;;;;;;4950228;28;89469;-77
2024/02/28 16:28:38;;;;;;;;;;;;;;;;;;4953842;28;89785;-76
2024/02/28 16:31:05;;;;;;;;;;;;;;;;;;4949967;28;92379;-77
2024/02/28 16:33:30;;;;;;;;;;;;;;;;;;4949914;28;91020;-79
2024/02/28 16:35:56;;;;;;;;;;;;;;;;;;4950553;28;91356;-80